Time;durP1;ratioP1;P1;durP2;ratioP2;P2;SDS_P1;SDS_P2;PMS_P1;PMS_P2;Temp;Humidity;BMP_temperature;BMP_pressure;BME280_temperature;BME280_humidity;BME280_pressure;Samples;Min_cycle;Max_cycle;Signal;HPM_P1;HPM_P2
2022/08/17 00:00:59;;;;;;;4.80;2.58;;;23.70;49.90;;;;;;2261755;56;21092;-71
2022/08/17 00:03:30;;;;;;;3.60;2.50;;;23.70;50.10;;;;;;2261918;56;20937;-71
2022/08/17 00:06:13;;;;;;;3.17;2.22;;;23.70;50.20;;;;;;2260890;56;21390;-71
2022/08/17 00:08:59;;;;;;;3.70;2.22;;;23.70;50.70;;;;;;2268824;56;21021;-70
2022/08/17 00:11:30;;;;;;;3.87;2.70;;;23.60;50.60;;;;;;2262022;56;20953;-71
2022/08/17 00:14:07;;;;;;;3.25;2.30;;;23.70;50.60;;;;;;2262003;56;21791;-70
2022/08/17 00:16:36;;;;;;;3.60;2.40;;;23.70;50.60;;;;;;2260874;56;20976;-71
2022/08/17 00:19:06;;;;;;;4.20;2.87;;;23.70;50.50;;;;;;2261852;56;20932;-71
2022/08/17 00:21:34;;;;;;;4.25;2.47;;;23.70;50.60;;;;;;2268488;55;20967;-72
2022/08/17 00:24:01;;;;;;;4.20;2.75;;;23.70;50.60;;;;;;2341128;55;20981;-71
2022/08/17 00:26:27;;;;;;;3.78;2.95;;;23.70;50.70;;;;;;2306768;55;21477;-71
2022/08/17 00:28:53;;;;;;;3.28;2.62;;;23.70;50.90;;;;;;2261792;56;21024;-71
2022/08/17 00:31:20;;;;;;;4.20;2.67;;;23.70;50.90;;;;;;2331605;55;20953;-72
2022/08/17 00:33:46;;;;;;;3.78;2.53;;;23.70;50.90;;;;;;2367479;55;20980;-71
2022/08/17 00:36:16;;;;;;;3.55;2.75;;;23.70;51.10;;;;;;2263526;56;21041;-71
2022/08/17 00:38:42;;;;;;;4.22;2.80;;;23.70;51.00;;;;;;2259582;56;20984;-71
2022/08/17 00:41:20;;;;;;;3.45;2.35;;;23.70;51.10;;;;;;2262726;56;20956;-71
2022/08/17 00:44:04;;;;;;;3.45;2.25;;;23.70;51.20;;;;;;2258427;56;20949;-70
2022/08/17 00:46:35;;;;;;;3.70;2.30;;;23.80;51.30;;;;;;2264658;56;20961;-71
2022/08/17 00:49:05;;;;;;;4.23;2.70;;;23.80;50.90;;;;;;2261808;56;21046;-72
2022/08/17 00:51:45;;;;;;;5.53;2.25;;;23.80;51.00;;;;;;2261340;56;20936;-71
2022/08/17 00:54:17;;;;;;;3.90;2.70;;;23.80;51.40;;;;;;2264134;56;20961;-72
2022/08/17 00:56:47;;;;;;;;;;;23.80;51.30;;;;;;2264673;56;20964;-70
2022/08/17 00:59:17;;;;;;;3.22;2.05;;;23.80;51.30;;;;;;2262373;56;20077;-71
2022/08/17 01:01:44;;;;;;;3.20;2.28;;;23.80;50.80;;;;;;2262809;56;20948;-71
2022/08/17 01:04:10;;;;;;;3.42;2.17;;;23.80;50.80;;;;;;2262602;56;20964;-70
2022/08/17 01:06:37;;;;;;;3.30;1.95;;;23.80;50.80;;;;;;2263970;56;21021;-71
2022/08/17 01:09:03;;;;;;;3.40;2.25;;;23.80;50.80;;;;;;2264937;56;20960;-70
2022/08/17 01:11:30;;;;;;;3.42;2.47;;;23.80;50.90;;;;;;2266347;56;21032;-71
2022/08/17 01:13:57;;;;;;;3.20;2.30;;;23.80;50.90;;;;;;2259332;56;20975;-71
2022/08/17 01:16:28;;;;;;;3.50;2.25;;;23.80;50.90;;;;;;2264351;56;20964;-71
2022/08/17 01:18:58;;;;;;;5.05;2.37;;;23.80;51.00;;;;;;2261215;56;20925;-70
2022/08/17 01:21:51;;;;;;;4.82;2.97;;;23.80;51.00;;;;;;2261699;56;20960;-71
2022/08/17 01:24:17;;;;;;;3.83;2.75;;;23.80;51.80;;;;;;2266217;55;21512;-73
2022/08/17 01:26:44;;;;;;;5.30;2.75;;;23.80;51.30;;;;;;2264769;56;21854;-71
2022/08/17 01:29:10;;;;;;;3.30;2.55;;;23.70;51.20;;;;;;2261556;56;20951;-72
2022/08/17 01:31:44;;;;;;;4.03;2.58;;;23.70;51.30;;;;;;2395085;55;21092;-71
2022/08/17 01:34:11;;;;;;;3.62;2.65;;;23.70;51.40;;;;;;2260973;56;21036;-73
2022/08/17 01:36:40;;;;;;;3.87;2.78;;;23.70;51.30;;;;;;2403068;55;22114;-71
2022/08/17 01:39:10;;;;;;;3.20;2.20;;;23.70;51.30;;;;;;2264047;56;21489;-72
2022/08/17 01:41:37;;;;;;;3.50;2.30;;;23.70;51.30;;;;;;2249952;56;20971;-70
2022/08/17 01:44:04;;;;;;;4.10;2.45;;;23.70;51.20;;;;;;2260101;56;21024;-70
2022/08/17 01:46:32;;;;;;;4.80;2.80;;;23.80;51.40;;;;;;2316924;54;21529;-71
2022/08/17 01:48:59;;;;;;;4.20;3.08;;;23.80;51.40;;;;;;2261838;56;20949;-72
2022/08/17 01:51:31;;;;;;;3.92;2.85;;;23.80;51.50;;;;;;2261682;56;20948;-72
2022/08/17 01:54:04;;;;;;;4.78;3.08;;;23.80;51.60;;;;;;2260944;56;20969;-71
2022/08/17 01:56:30;;;;;;;5.03;2.90;;;23.80;51.70;;;;;;2259673;56;20953;-71
2022/08/17 01:58:56;;;;;;;3.87;2.58;;;23.80;51.70;;;;;;2373207;55;21049;-71
2022/08/17 02:01:25;;;;;;;6.87;3.30;;;23.80;51.70;;;;;;2441129;55;20981;-71
2022/08/17 02:03:52;;;;;;;4.12;3.08;;;23.80;51.90;;;;;;2264377;56;21882;-72
2022/08/17 02:06:18;;;;;;;4.40;3.33;;;23.80;52.00;;;;;;2431451;55;20969;-71
2022/08/17 02:08:48;;;;;;;5.00;3.10;;;23.80;52.00;;;;;;2243905;57;20940;-72
2022/08/17 02:11:17;;;;;;;4.95;3.00;;;23.90;52.20;;;;;;2261461;56;21036;-71
2022/08/17 02:13:44;;;;;;;3.42;2.60;;;23.90;52.10;;;;;;2262456;56;20942;-71
2022/08/17 02:16:11;;;;;;;3.80;2.47;;;23.90;52.10;;;;;;2263866;56;21044;-73
2022/08/17 02:18:37;;;;;;;3.80;2.58;;;23.90;52.10;;;;;;2264592;56;21064;-71
2022/08/17 02:21:03;;;;;;;4.28;2.60;;;24.00;52.20;;;;;;2260963;56;21005;-73
2022/08/17 02:23:32;;;;;;;3.65;2.33;;;24.00;52.10;;;;;;2266850;56;21002;-70
2022/08/17 02:25:58;;;;;;;3.85;2.40;;;24.00;52.10;;;;;;2261570;56;21033;-72
2022/08/17 02:28:28;;;;;;;3.17;2.30;;;24.00;52.00;;;;;;2263782;56;20969;-71
2022/08/17 02:30:56;;;;;;;3.50;2.50;;;24.10;52.00;;;;;;2261077;56;20968;-71
2022/08/17 02:33:22;;;;;;;3.47;2.33;;;24.10;52.00;;;;;;2348641;55;20940;-71
2022/08/17 02:35:49;;;;;;;3.40;2.47;;;24.10;52.00;;;;;;2261253;56;21873;-71
2022/08/17 02:38:16;;;;;;;7.30;2.72;;;24.10;51.90;;;;;;2403551;55;21044;-72
2022/08/17 02:40:42;;;;;;;4.53;2.75;;;24.20;52.00;;;;;;2264666;56;21865;-71
2022/08/17 02:43:09;;;;;;;3.10;1.90;;;24.20;51.90;;;;;;2261604;56;20992;-71
2022/08/17 02:45:35;;;;;;;4.20;2.40;;;24.20;51.80;;;;;;2268059;55;20926;-70
2022/08/17 02:48:04;;;;;;;4.05;2.20;;;24.30;51.80;;;;;;2262177;56;20944;-72
2022/08/17 02:50:30;;;;;;;3.53;2.37;;;24.30;51.70;;;;;;2262241;56;21004;-71
2022/08/17 02:52:59;;;;;;;2.95;2.03;;;24.30;51.70;;;;;;2391458;55;21508;-71
2022/08/17 02:55:28;;;;;;;4.60;2.28;;;24.30;51.60;;;;;;2266566;56;20973;-71
2022/08/17 02:57:54;;;;;;;3.78;2.00;;;24.40;51.60;;;;;;2261401;56;21029;-72
2022/08/17 03:00:27;;;;;;;3.33;2.40;;;24.40;51.50;;;;;;2262501;56;20921;-71
2022/08/17 03:02:55;;;;;;;4.22;2.40;;;24.40;51.50;;;;;;2264380;55;20981;-72
2022/08/17 03:05:23;;;;;;;4.85;2.20;;;24.40;51.50;;;;;;2262208;56;20956;-72
2022/08/17 03:07:49;;;;;;;3.50;2.15;;;24.50;51.60;;;;;;2335870;55;21355;-71
2022/08/17 03:10:16;;;;;;;4.28;2.83;;;24.50;51.50;;;;;;2264982;55;21042;-71
2022/08/17 03:12:43;;;;;;;3.37;2.40;;;24.50;51.60;;;;;;2260625;56;21909;-71
2022/08/17 03:15:17;;;;;;;3.50;2.47;;;24.50;51.70;;;;;;2265728;56;20989;-71
2022/08/17 03:17:43;;;;;;;4.05;2.17;;;24.50;51.80;;;;;;2329263;55;20957;-70
2022/08/17 03:20:10;;;;;;;3.40;2.10;;;24.60;51.80;;;;;;2260682;56;21498;-71
2022/08/17 03:22:44;;;;;;;3.33;2.10;;;24.60;51.60;;;;;;2265980;55;20993;-71
2022/08/17 03:25:12;;;;;;;3.17;2.05;;;24.60;51.70;;;;;;2260105;55;21489;-73
2022/08/17 03:27:39;;;;;;;3.55;2.30;;;24.60;51.70;;;;;;2388963;55;20969;-72
2022/08/17 03:30:09;;;;;;;4.57;2.33;;;24.60;51.80;;;;;;2262197;56;20993;-71
2022/08/17 03:32:44;;;;;;;4.37;2.58;;;24.60;51.80;;;;;;2264109;56;20968;-71
2022/08/17 03:35:11;;;;;;;3.97;2.55;;;24.60;51.90;;;;;;2262639;56;21489;-73
2022/08/17 03:37:38;;;;;;;3.70;2.55;;;24.60;51.80;;;;;;2262961;56;20937;-71
2022/08/17 03:40:06;;;;;;;3.55;2.40;;;24.60;51.90;;;;;;2262211;56;20933;-72
2022/08/17 03:42:37;;;;;;;3.65;2.50;;;24.70;52.00;;;;;;2401095;55;21036;-71
2022/08/17 03:45:05;;;;;;;3.28;2.20;;;24.70;52.20;;;;;;2379428;55;20948;-71
2022/08/17 03:58:31;;;;;;;3.85;2.45;;;24.70;51.90;;;;;;2261261;56;21750;-71
2022/08/17 04:00:58;;;;;;;3.47;2.58;;;24.70;51.90;;;;;;2263835;56;20964;-73
2022/08/17 04:03:25;;;;;;;4.65;3.00;;;24.70;51.90;;;;;;2261611;56;20937;-71
2022/08/17 04:05:53;;;;;;;5.10;2.30;;;24.70;51.90;;;;;;2263894;56;20992;-71
2022/08/17 04:08:19;;;;;;;4.60;2.60;;;24.70;51.80;;;;;;2263690;56;21822;-71
2022/08/17 04:10:51;;;;;;;3.47;2.08;;;24.70;51.80;;;;;;2348399;55;21003;-71
2022/08/17 04:13:18;;;;;;;2.97;2.03;;;24.70;51.80;;;;;;2261530;56;20981;-73
2022/08/17 04:15:47;;;;;;;3.35;2.25;;;24.70;51.80;;;;;;2264895;56;21025;-71
2022/08/17 04:18:14;;;;;;;6.60;2.22;;;24.70;51.70;;;;;;2262247;56;21009;-71
2022/08/17 04:20:41;;;;;;;3.00;1.77;;;24.70;51.80;;;;;;2262300;56;21025;-71
2022/08/17 04:23:12;;;;;;;3.25;2.22;;;24.80;51.80;;;;;;2265381;56;20997;-71
2022/08/17 04:25:43;;;;;;;3.33;2.28;;;24.80;52.40;;;;;;2261863;56;21021;-72
2022/08/17 04:28:09;;;;;;;3.30;2.15;;;24.80;51.80;;;;;;2364698;55;20949;-72
2022/08/17 04:30:36;;;;;;;4.18;2.10;;;24.80;52.00;;;;;;2262197;56;21064;-71
2022/08/17 04:33:13;;;;;;;3.17;2.00;;;24.80;52.30;;;;;;2286888;55;21504;-71
2022/08/17 04:35:45;;;;;;;3.28;1.95;;;24.80;51.90;;;;;;2267826;56;21940;-73
2022/08/17 04:38:14;;;;;;;4.30;2.55;;;24.80;51.80;;;;;;2261056;56;20953;-71
2022/08/17 04:49:56;;;;;;;2.37;1.35;;;24.70;52.10;;;;;;2261016;56;21028;-70
2022/08/17 04:52:23;;;;;;;4.22;1.45;;;24.80;51.90;;;;;;2268497;55;21002;-71
2022/08/17 04:54:49;;;;;;;3.42;2.00;;;24.70;52.10;;;;;;2264183;56;21020;-70
2022/08/17 04:57:16;;;;;;;3.30;2.10;;;24.70;52.40;;;;;;2261265;56;20933;-69
2022/08/17 04:59:42;;;;;;;3.95;1.95;;;24.70;52.50;;;;;;2264975;56;21024;-72
2022/08/17 05:02:12;;;;;;;3.50;2.12;;;24.70;52.60;;;;;;2264911;56;21503;-72
2022/08/17 05:04:40;;;;;;;3.62;2.30;;;24.70;52.90;;;;;;2286853;55;21410;-71
2022/08/17 05:07:07;;;;;;;3.30;2.20;;;24.60;52.80;;;;;;2265668;56;21013;-72
2022/08/17 05:09:33;;;;;;;3.80;2.60;;;24.60;53.40;;;;;;2262436;56;21557;-71
2022/08/17 05:12:01;;;;;;;3.35;2.15;;;24.60;53.00;;;;;;2309792;55;20937;-71
2022/08/17 05:14:27;;;;;;;4.07;2.17;;;24.60;53.00;;;;;;2266310;55;20956;-70
2022/08/17 05:16:53;;;;;;;3.35;2.05;;;24.60;53.10;;;;;;2261961;56;20952;-71
2022/08/17 05:19:19;;;;;;;4.57;2.20;;;24.60;53.10;;;;;;2265259;56;21584;-70
2022/08/17 05:21:46;;;;;;;3.58;2.45;;;24.60;53.20;;;;;;2261000;56;21024;-70
2022/08/17 05:24:12;;;;;;;3.70;2.40;;;24.60;53.30;;;;;;2384282;55;21000;-69
2022/08/17 05:26:39;;;;;;;3.30;2.00;;;24.50;53.40;;;;;;2283968;55;21025;-72
2022/08/17 05:29:05;;;;;;;4.60;2.53;;;24.50;53.40;;;;;;2262595;56;21005;-69
2022/08/17 05:31:31;;;;;;;4.28;2.83;;;24.50;53.50;;;;;;2262037;56;21063;-70
2022/08/17 05:34:00;;;;;;;4.70;3.20;;;24.50;53.60;;;;;;2268541;55;21779;-71
2022/08/17 05:36:30;;;;;;;4.15;2.83;;;24.50;53.60;;;;;;2247867;56;20997;-71
2022/08/17 05:38:56;;;;;;;4.82;2.85;;;24.40;53.70;;;;;;2325795;55;20993;-70
2022/08/17 05:41:23;;;;;;;4.05;2.87;;;24.40;53.80;;;;;;2273756;55;21056;-70
2022/08/17 05:43:49;;;;;;;3.72;2.65;;;24.40;53.90;;;;;;2273577;55;21068;-71
2022/08/17 05:46:23;;;;;;;4.60;2.70;;;24.40;53.90;;;;;;2381299;55;20957;-71
2022/08/17 05:49:04;;;;;;;3.75;2.50;;;24.40;54.10;;;;;;2262740;56;21568;-71
2022/08/17 05:55:29;;;;;;;4.18;2.55;;;24.40;54.30;;;;;;2262359;56;20963;-72
2022/08/17 05:58:28;;;;;;;2.85;1.48;;;24.40;54.30;;;;;;2265108;56;20976;-71
2022/08/17 06:04:08;;;;;;;2.75;1.70;;;24.40;54.00;;;;;;2262387;56;20985;-71
2022/08/17 06:08:07;;;;;;;3.28;1.45;;;24.40;53.90;;;;;;2265889;55;20969;-70
2022/08/17 06:10:46;;;;;;;3.25;1.55;;;24.40;54.20;;;;;;2262104;56;21009;-71
2022/08/17 06:13:37;;;;;;;2.58;1.30;;;24.40;53.90;;;;;;2261869;56;20952;-69
2022/08/17 06:16:09;;;;;;;2.42;1.40;;;24.40;54.20;;;;;;2397141;54;20977;-69
2022/08/17 06:18:48;;;;;;;3.47;1.70;;;24.40;54.10;;;;;;2263468;56;21645;-71
2022/08/17 06:21:16;;;;;;;3.00;1.90;;;24.40;54.40;;;;;;2264881;56;21024;-71
2022/08/17 06:23:47;;;;;;;2.80;1.90;;;24.40;54.30;;;;;;2264639;56;21414;-71
2022/08/17 06:26:16;;;;;;;3.12;1.80;;;24.40;54.40;;;;;;2269308;55;20958;-71
2022/08/17 06:28:48;;;;;;;3.35;1.85;;;24.40;54.30;;;;;;2262960;56;20972;-71
2022/08/17 06:31:21;;;;;;;2.70;1.60;;;24.40;54.40;;;;;;2265641;56;20965;-69
2022/08/17 06:33:48;;;;;;;2.87;1.73;;;24.30;54.10;;;;;;2351308;55;21396;-71
2022/08/17 06:44:54;;;;;;;2.42;1.35;;;24.30;54.70;;;;;;2264907;56;21694;-71
2022/08/17 06:47:42;;;;;;;2.40;1.02;;;24.30;54.50;;;;;;2262837;56;20960;-70
2022/08/17 06:50:34;;;;;;;1.80;0.98;;;24.30;54.40;;;;;;2263091;56;21083;-69
2022/08/17 06:53:33;;;;;;;3.22;1.20;;;24.30;54.60;;;;;;2491228;55;20988;-72
2022/08/17 06:56:34;;;;;;;2.90;1.62;;;24.30;54.80;;;;;;2261547;56;21001;-69
2022/08/17 06:59:01;;;;;;;3.00;1.50;;;24.30;55.00;;;;;;2374799;55;21029;-71
2022/08/17 07:01:32;;;;;;;3.05;1.50;;;24.20;54.60;;;;;;2262409;56;21036;-69
2022/08/17 07:04:10;;;;;;;3.22;1.40;;;24.20;54.80;;;;;;2267466;56;20985;-69
2022/08/17 07:09:57;;;;;;;2.47;1.30;;;24.10;54.90;;;;;;2262721;56;21041;-70
2022/08/17 07:12:37;;;;;;;2.62;1.40;;;24.10;54.90;;;;;;2261764;56;21017;-70
2022/08/17 07:15:11;;;;;;;4.30;1.30;;;24.00;55.30;;;;;;2264128;56;21045;-70
2022/08/17 07:17:40;;;;;;;2.60;1.50;;;24.10;55.20;;;;;;2274654;55;21024;-69
2022/08/17 07:20:13;;;;;;;3.30;1.45;;;24.00;55.20;;;;;;2261123;56;20956;-70
2022/08/17 07:24:28;;;;;;;4.85;1.77;;;24.00;55.40;;;;;;2320578;55;20993;-71
2022/08/17 07:27:22;;;;;;;2.80;1.52;;;24.00;55.90;;;;;;2264645;56;20984;-69
2022/08/17 07:30:02;;;;;;;2.45;1.37;;;24.10;56.00;;;;;;2263129;56;21044;-71
2022/08/17 07:32:52;;;;;;;3.62;1.70;;;24.00;55.80;;;;;;2350021;55;21049;-72
2022/08/17 07:35:33;;;;;;;2.47;1.20;;;24.00;55.90;;;;;;2259740;56;20949;-69
2022/08/17 07:38:23;;;;;;;3.60;1.52;;;24.00;55.60;;;;;;2294623;55;21020;-68
2022/08/17 07:41:02;;;;;;;;;;;24.00;56.00;;;;;;2247702;56;21057;-70
2022/08/17 07:44:07;;;;;;;2.33;1.23;;;24.00;55.70;;;;;;2351025;55;20069;-68
2022/08/17 07:49:22;;;;;;;2.55;1.50;;;23.90;55.40;;;;;;2264521;56;21101;-69
2022/08/17 07:52:26;;;;;;;4.15;1.80;;;23.90;55.60;;;;;;2264993;56;21015;-69
2022/08/17 07:54:53;;;;;;;2.40;1.50;;;23.90;56.10;;;;;;2262350;56;20981;-70
2022/08/17 07:57:40;;;;;;;2.60;1.40;;;23.90;55.70;;;;;;2263356;56;20981;-69
2022/08/17 08:00:15;;;;;;;2.60;1.42;;;23.90;56.20;;;;;;2261842;56;21455;-70
2022/08/17 08:02:44;;;;;;;2.65;1.50;;;23.90;55.90;;;;;;2265254;56;21044;-69
2022/08/17 08:05:26;;;;;;;3.03;1.70;;;23.90;55.90;;;;;;2265761;56;20949;-71
2022/08/17 08:07:54;;;;;;;;;;;23.90;56.00;;;;;;2490193;55;20967;-69
2022/08/17 08:11:07;;;;;;;2.83;1.67;;;23.90;56.10;;;;;;2261063;55;20111;-72
2022/08/17 08:13:39;;;;;;;3.67;1.90;;;23.90;56.20;;;;;;2284813;55;20977;-69
2022/08/17 08:17:35;;;;;;;3.55;1.95;;;23.90;55.90;;;;;;2255839;56;20960;-69
2022/08/17 08:20:05;;;;;;;3.28;1.50;;;23.90;56.50;;;;;;2335845;54;22224;-71
2022/08/17 08:22:44;;;;;;;2.35;1.50;;;23.90;56.20;;;;;;2269951;55;21028;-68
2022/08/17 08:29:41;;;;;;;3.85;1.92;;;23.80;56.40;;;;;;2408632;55;20973;-69
2022/08/17 08:32:35;;;;;;;5.80;2.10;;;23.80;56.70;;;;;;2262527;56;21021;-68
2022/08/17 08:35:12;;;;;;;3.45;2.10;;;23.90;57.00;;;;;;2261644;56;20964;-69
2022/08/17 08:45:43;;;;;;;4.32;2.20;;;23.90;57.00;;;;;;2262430;56;20997;-70
2022/08/17 08:55:01;;;;;;;2.97;1.70;;;23.90;57.10;;;;;;2262953;56;21024;-70
2022/08/17 08:57:35;;;;;;;2.90;1.52;;;23.90;56.70;;;;;;2334898;55;21760;-68
2022/08/17 09:00:23;;;;;;;2.42;1.40;;;23.90;57.00;;;;;;2263574;55;21597;-69
2022/08/17 09:03:32;;;;;;;3.62;2.33;;;23.90;57.20;;;;;;2381021;55;21053;-71
2022/08/17 09:06:26;;;;;;;3.53;2.10;;;23.90;58.00;;;;;;2339244;55;21052;-70
2022/08/17 09:12:37;;;;;;;3.37;2.10;;;23.90;57.60;;;;;;2261453;56;20981;-69
2022/08/17 09:15:28;;;;;;;3.50;1.87;;;23.90;57.80;;;;;;2275614;55;20950;-69
2022/08/17 09:18:00;;;;;;;3.50;2.10;;;24.10;58.30;;;;;;2262156;56;21139;-70
2022/08/17 09:21:02;;;;;;;3.72;2.15;;;24.10;57.90;;;;;;2312209;55;21060;-71
2022/08/17 09:24:11;;;;;;;3.78;2.35;;;24.10;58.50;;;;;;2262349;56;20957;-71
2022/08/17 09:26:52;;;;;;;3.35;2.45;;;24.10;58.40;;;;;;2262313;56;20933;-70
2022/08/17 09:29:24;;;;;;;3.72;2.53;;;24.20;58.30;;;;;;2265445;56;21025;-71
2022/08/17 09:31:55;;;;;;;4.22;2.95;;;24.20;58.20;;;;;;2261095;56;21008;-69
2022/08/17 09:34:31;;;;;;;5.80;3.47;;;24.30;58.40;;;;;;2263189;56;20997;-71
2022/08/17 09:37:59;;;;;;;4.40;2.72;;;24.30;58.40;;;;;;2264932;56;21579;-70
2022/08/17 09:40:38;;;;;;;5.62;2.90;;;24.30;58.80;;;;;;2261775;56;20940;-73
2022/08/17 09:43:45;;;;;;;4.43;3.10;;;24.30;58.70;;;;;;2263849;56;21841;-70
2022/08/17 09:46:36;;;;;;;4.43;2.53;;;24.40;59.00;;;;;;2261713;56;20964;-70
2022/08/17 09:49:41;;;;;;;3.70;2.55;;;24.40;58.60;;;;;;2262914;56;20969;-70
2022/08/17 09:52:25;;;;;;;3.62;2.45;;;24.40;58.50;;;;;;2262480;56;20929;-69
2022/08/17 09:54:52;;;;;;;3.80;2.65;;;24.40;58.50;;;;;;2260169;56;21016;-71
2022/08/17 10:04:09;;;;;;;3.30;2.22;;;24.40;58.40;;;;;;2333512;55;20953;-68
2022/08/17 10:06:51;;;;;;;3.00;1.70;;;24.60;58.10;;;;;;2328312;55;20977;-70
2022/08/17 10:09:28;;;;;;;3.05;2.00;;;24.60;58.00;;;;;;2336709;55;20962;-71
2022/08/17 10:12:18;;;;;;;3.50;2.37;;;24.60;58.10;;;;;;2263306;56;21012;-71
2022/08/17 10:18:00;;;;;;;3.37;2.22;;;24.60;58.10;;;;;;2319097;55;20977;-69
2022/08/17 10:20:35;;;;;;;2.72;1.60;;;24.60;58.30;;;;;;2329673;55;20972;-72
2022/08/17 10:26:22;;;;;;;2.90;1.80;;;24.70;58.70;;;;;;2261262;56;20960;-70
2022/08/17 10:28:58;;;;;;;2.95;1.45;;;24.70;58.50;;;;;;2261470;56;21321;-71
2022/08/17 10:31:29;;;;;;;2.70;1.70;;;24.80;58.40;;;;;;2429077;55;20957;-70
2022/08/17 10:35:33;;;;;;;3.22;1.87;;;24.80;58.40;;;;;;2269194;55;21839;-69
2022/08/17 10:39:14;;;;;;;4.32;1.60;;;24.80;58.80;;;;;;2262067;56;21764;-71
2022/08/17 10:41:49;;;;;;;2.55;1.52;;;24.90;58.90;;;;;;2261849;56;20945;-70
2022/08/17 10:44:55;;;;;;;2.47;1.52;;;25.00;58.60;;;;;;2262058;56;26757;-69
2022/08/17 10:47:25;;;;;;;3.22;1.77;;;25.00;58.50;;;;;;2266288;56;21113;-69
2022/08/17 10:49:54;;;;;;;3.15;1.77;;;25.00;58.40;;;;;;2264619;56;21417;-71
2022/08/17 10:52:54;;;;;;;3.30;1.75;;;25.00;58.40;;;;;;2261844;56;20956;-69
2022/08/17 10:55:25;;;;;;;3.10;1.67;;;25.10;58.80;;;;;;2262199;56;20965;-70
2022/08/17 10:58:20;;;;;;;3.30;1.90;;;25.20;58.50;;;;;;2245429;56;20985;-69
2022/08/17 11:00:56;;;;;;;2.90;1.70;;;25.20;58.60;;;;;;2261664;56;20969;-70
2022/08/17 11:03:23;;;;;;;2.80;1.87;;;25.20;58.60;;;;;;2386105;55;20981;-69
2022/08/17 11:09:09;;;;;;;3.60;1.87;;;25.30;58.40;;;;;;2261984;56;20961;-70
2022/08/17 11:11:57;;;;;;;3.25;1.83;;;25.40;58.60;;;;;;2412915;55;21811;-70
2022/08/17 11:14:35;;;;;;;3.22;2.10;;;25.50;58.80;;;;;;2262346;56;21060;-70
2022/08/17 11:18:00;;;;;;;4.37;2.53;;;25.60;58.90;;;;;;2262138;56;20968;-71
2022/08/17 11:27:27;;;;;;;3.53;2.00;;;25.60;58.70;;;;;;2262999;56;20973;-70
2022/08/17 11:29:58;;;;;;;3.78;1.67;;;25.70;59.00;;;;;;2262574;56;21480;-68
2022/08/17 11:33:03;;;;;;;3.30;2.17;;;26.00;58.40;;;;;;2261874;56;20967;-71
2022/08/17 11:35:32;;;;;;;;;;;26.10;58.80;;;;;;2268443;56;21037;-70
2022/08/17 11:38:17;;;;;;;2.87;1.67;;;26.20;58.60;;;;;;2288535;55;20352;-70
2022/08/17 11:41:05;;;;;;;4.07;2.40;;;26.30;58.40;;;;;;2262472;56;20944;-71
2022/08/17 11:44:39;;;;;;;3.50;1.80;;;26.30;58.20;;;;;;2327648;55;20952;-71
2022/08/17 11:53:55;;;;;;;3.25;2.10;;;26.50;58.10;;;;;;2403700;55;21014;-73
2022/08/17 11:56:35;;;;;;;3.20;1.75;;;26.80;57.50;;;;;;2261439;56;20957;-69
2022/08/17 11:59:01;;;;;;;3.25;2.08;;;26.90;57.20;;;;;;2262504;56;20952;-71
2022/08/17 12:03:10;;;;;;;2.83;1.80;;;26.90;57.20;;;;;;2262195;56;21480;-69
2022/08/17 12:05:37;;;;;;;3.05;1.77;;;27.00;56.90;;;;;;2261563;56;20969;-70
2022/08/17 12:08:13;;;;;;;3.10;1.87;;;27.10;56.80;;;;;;2284971;55;21703;-70
2022/08/17 12:10:53;;;;;;;3.08;2.03;;;27.20;56.80;;;;;;2411012;54;20980;-70
2022/08/17 12:13:20;;;;;;;4.20;2.42;;;27.30;56.30;;;;;;2264598;56;21033;-70
2022/08/17 12:15:49;;;;;;;3.45;2.05;;;27.30;56.50;;;;;;2262938;56;21024;-71
2022/08/17 12:18:32;;;;;;;2.53;1.75;;;27.40;56.30;;;;;;2250045;56;21871;-71
2022/08/17 12:24:49;;;;;;;2.97;1.80;;;27.50;56.10;;;;;;2261666;56;21486;-70
2022/08/17 12:27:26;;;;;;;2.92;1.83;;;27.70;55.70;;;;;;2264821;56;21028;-70
2022/08/17 12:29:53;;;;;;;2.60;1.73;;;27.80;56.00;;;;;;2261260;56;21788;-70
2022/08/17 12:32:20;;;;;;;3.10;1.98;;;27.90;55.60;;;;;;2261955;56;21052;-71
2022/08/17 12:34:47;;;;;;;3.17;2.10;;;28.00;55.60;;;;;;2296621;55;20977;-69
2022/08/17 12:37:25;;;;;;;2.65;1.73;;;28.10;55.50;;;;;;2269158;55;21707;-70
2022/08/17 12:39:57;;;;;;;2.60;1.87;;;28.10;55.10;;;;;;2263996;56;20953;-71
2022/08/17 12:42:28;;;;;;;3.58;2.05;;;28.20;55.10;;;;;;2397757;55;21033;-70
2022/08/17 12:44:55;;;;;;;3.27;2.03;;;28.30;55.10;;;;;;2491139;55;20945;-70
2022/08/17 12:47:21;;;;;;;3.20;1.98;;;28.30;55.10;;;;;;2263073;56;21167;-71
2022/08/17 12:49:52;;;;;;;4.20;2.03;;;28.40;54.60;;;;;;2263438;59;21135;-71
2022/08/17 12:52:27;;;;;;;3.10;2.15;;;28.50;54.50;;;;;;2260904;59;21061;-70
2022/08/17 12:55:19;;;;;;;3.30;1.90;;;28.60;53.90;;;;;;2255309;56;21402;-70
2022/08/17 12:57:52;;;;;;;3.40;1.73;;;28.70;53.30;;;;;;2280637;55;20953;-70
2022/08/17 13:00:29;;;;;;;3.40;2.00;;;28.80;53.70;;;;;;2264600;56;20953;-71
2022/08/17 13:03:08;;;;;;;2.67;1.65;;;28.90;53.30;;;;;;2265222;56;21461;-71
2022/08/17 13:05:36;;;;;;;3.47;1.87;;;29.00;53.10;;;;;;2261278;56;20973;-70
2022/08/17 13:08:22;;;;;;;3.47;1.98;;;29.10;52.90;;;;;;2262309;56;21382;-71
2022/08/17 13:11:18;;;;;;;3.30;2.10;;;29.20;52.70;;;;;;2243463;56;21852;-72
2022/08/17 13:13:53;;;;;;;3.08;1.73;;;29.30;51.90;;;;;;2263942;56;21100;-72
2022/08/17 13:16:26;;;;;;;2.92;1.80;;;29.30;52.20;;;;;;2264870;56;21032;-72
2022/08/17 13:18:54;;;;;;;3.00;1.80;;;29.40;52.00;;;;;;2261550;56;20921;-73
2022/08/17 13:21:29;;;;;;;2.90;1.62;;;29.50;51.80;;;;;;2490717;55;21009;-73
2022/08/17 13:24:16;;;;;;;2.72;1.70;;;29.60;51.30;;;;;;2262219;56;20988;-71
2022/08/17 13:27:25;;;;;;;3.10;2.00;;;29.70;50.60;;;;;;2264693;56;21036;-73
2022/08/17 13:29:58;;;;;;;2.70;1.70;;;29.70;50.90;;;;;;2265238;56;21039;-72
2022/08/17 13:32:41;;;;;;;2.90;1.50;;;29.80;50.90;;;;;;2262732;56;21480;-72
2022/08/17 13:35:42;;;;;;;3.05;1.77;;;29.80;50.70;;;;;;2265724;56;20964;-73
2022/08/17 13:38:32;;;;;;;3.00;1.62;;;29.90;50.90;;;;;;2264751;56;20937;-72
2022/08/17 13:40:59;;;;;;;3.25;1.85;;;29.90;50.70;;;;;;2259715;56;20960;-73
2022/08/17 13:45:31;;;;;;;3.40;1.67;;;29.90;50.60;;;;;;2261155;56;21469;-74
2022/08/17 13:48:21;;;;;;;2.28;1.33;;;30.00;50.40;;;;;;2263437;56;21036;-72
2022/08/17 13:51:29;;;;;;;2.60;1.62;;;30.00;50.20;;;;;;2262062;56;20944;-72
2022/08/17 13:53:57;;;;;;;3.00;1.40;;;30.00;50.30;;;;;;2262207;56;20981;-72
2022/08/17 13:56:30;;;;;;;3.22;1.58;;;30.10;50.40;;;;;;2263614;56;20976;-72
2022/08/17 13:59:00;;;;;;;2.92;1.50;;;30.10;50.20;;;;;;2262619;56;20945;-72
2022/08/17 14:01:34;;;;;;;2.90;1.67;;;30.10;50.30;;;;;;2262157;56;20972;-72
2022/08/17 14:04:06;;;;;;;3.45;1.83;;;30.10;50.20;;;;;;2392296;55;20951;-72
2022/08/17 14:07:29;;;;;;;4.68;1.90;;;30.20;50.10;;;;;;2260854;56;20961;-72
2022/08/17 14:10:16;;;;;;;3.75;1.73;;;30.20;49.50;;;;;;2262579;56;20952;-72
2022/08/17 14:12:43;;;;;;;3.15;1.73;;;30.20;49.60;;;;;;2264966;56;20981;-74
2022/08/17 14:15:13;;;;;;;3.08;1.70;;;30.20;49.60;;;;;;2262670;56;21493;-72
2022/08/17 14:17:39;;;;;;;3.30;2.10;;;30.30;49.40;;;;;;2264742;55;20985;-72
2022/08/17 14:20:08;;;;;;;2.85;1.70;;;30.30;49.30;;;;;;2262837;56;20940;-72
2022/08/17 14:22:36;;;;;;;2.92;1.90;;;30.30;49.00;;;;;;2262132;56;20981;-74
2022/08/17 14:25:03;;;;;;;2.97;1.65;;;30.30;48.90;;;;;;2262182;56;20964;-72
2022/08/17 14:27:32;;;;;;;2.90;1.83;;;30.30;48.80;;;;;;2262492;56;21446;-71
2022/08/17 14:29:59;;;;;;;3.42;2.00;;;30.20;48.70;;;;;;2264962;56;20969;-73
2022/08/17 14:32:31;;;;;;;3.25;1.92;;;30.30;48.80;;;;;;2248359;56;20997;-75
2022/08/17 14:34:58;;;;;;;;;;;30.30;48.90;;;;;;2268330;55;20933;-72
2022/08/17 14:37:26;;;;;;;2.70;1.37;;;30.30;49.00;;;;;;2267030;55;20760;-72
2022/08/17 14:40:05;;;;;;;4.05;1.50;;;30.30;49.10;;;;;;2261450;56;20965;-72
2022/08/17 14:42:33;;;;;;;2.75;1.42;;;30.30;48.80;;;;;;2263104;56;21553;-72
2022/08/17 14:45:04;;;;;;;3.17;1.60;;;30.30;49.20;;;;;;2362876;55;21024;-72
2022/08/17 14:47:32;;;;;;;3.03;1.70;;;30.30;49.10;;;;;;2304712;55;21522;-72
2022/08/17 14:50:00;;;;;;;3.10;1.65;;;30.30;49.10;;;;;;2264513;56;21046;-72
2022/08/17 14:52:27;;;;;;;2.80;1.80;;;30.30;49.00;;;;;;2263933;56;20991;-72
2022/08/17 14:54:54;;;;;;;3.22;2.30;;;30.40;49.00;;;;;;2263534;56;21097;-73
2022/08/17 14:57:21;;;;;;;2.92;1.80;;;30.40;49.00;;;;;;2259087;56;20994;-72
2022/08/17 14:59:49;;;;;;;3.78;1.70;;;30.40;48.80;;;;;;2263561;56;21348;-72
2022/08/17 15:02:16;;;;;;;2.95;1.80;;;30.40;48.70;;;;;;2262091;56;20944;-72
2022/08/17 15:04:46;;;;;;;3.37;2.00;;;30.40;48.60;;;;;;2348253;55;21063;-73
2022/08/17 15:07:15;;;;;;;3.05;1.70;;;30.40;48.40;;;;;;2261083;56;20953;-72
2022/08/17 15:09:41;;;;;;;3.95;2.00;;;30.40;48.40;;;;;;2262455;56;20977;-72
2022/08/17 15:12:17;;;;;;;3.12;2.08;;;30.40;48.30;;;;;;2261976;56;21000;-72
2022/08/17 15:14:43;;;;;;;2.80;1.65;;;30.50;48.10;;;;;;2268206;56;20998;-75